createdAt,value
2018-05-06T00:01:41.854Z,14.90
2018-05-06T00:04:08.162Z,14.90
2018-05-06T00:06:34.419Z,14.80
2018-05-06T00:09:00.734Z,14.80
2018-05-06T00:11:27.007Z,14.70
2018-05-06T00:13:54.039Z,14.50
2018-05-06T00:16:20.307Z,14.50
2018-05-06T00:18:47.146Z,14.50
2018-05-06T00:21:13.412Z,14.30
2018-05-06T00:23:39.714Z,14.20
2018-05-06T00:26:06.710Z,14.00
2018-05-06T00:28:32.970Z,14.00
2018-05-06T00:30:59.209Z,13.90
2018-05-06T00:33:25.537Z,13.70
2018-05-06T00:35:52.171Z,13.60
2018-05-06T00:38:18.646Z,13.50
2018-05-06T00:40:44.898Z,13.50
2018-05-06T00:43:11.827Z,13.50
2018-05-06T00:45:38.070Z,13.50
2018-05-06T00:48:04.773Z,13.50
2018-05-06T00:50:31.039Z,13.50
2018-05-06T00:52:57.514Z,13.40
2018-05-06T00:55:23.814Z,13.40
2018-05-06T00:57:50.108Z,13.40
2018-05-06T01:00:16.931Z,13.40
2018-05-06T01:02:43.933Z,13.20
2018-05-06T01:05:10.677Z,13.20
2018-05-06T01:07:36.978Z,13.20
2018-05-06T01:10:03.776Z,13.20
2018-05-06T01:12:30.077Z,13.10
2018-05-06T01:14:56.810Z,12.90
2018-05-06T01:17:23.146Z,12.80
2018-05-06T01:19:49.850Z,12.70
2018-05-06T01:22:16.829Z,12.70
2018-05-06T01:24:43.095Z,12.70
2018-05-06T01:27:09.326Z,12.70
2018-05-06T01:29:36.090Z,12.60
2018-05-06T01:32:02.394Z,12.50
2018-05-06T01:34:28.961Z,12.50
2018-05-06T01:36:55.225Z,12.40
2018-05-06T01:39:22.026Z,12.40
2018-05-06T01:41:48.299Z,12.40
2018-05-06T01:44:15.205Z,12.40
2018-05-06T01:46:42.133Z,12.40
2018-05-06T01:49:08.406Z,12.40
2018-05-06T01:51:34.674Z,12.40
2018-05-06T01:54:01.593Z,12.40
2018-05-06T01:56:27.855Z,12.40
2018-05-06T01:58:54.571Z,12.40
2018-05-06T02:01:20.854Z,12.40
2018-05-06T02:03:48.219Z,12.40
2018-05-06T02:06:14.563Z,12.40
2018-05-06T02:08:40.823Z,12.30
2018-05-06T02:11:07.342Z,12.40
2018-05-06T02:13:33.590Z,12.40
2018-05-06T02:16:00.201Z,12.40
2018-05-06T02:18:26.486Z,12.40
2018-05-06T02:20:52.749Z,12.30
2018-05-06T02:23:19.414Z,12.20
2018-05-06T02:25:45.687Z,12.20
2018-05-06T02:28:12.341Z,12.00
2018-05-06T02:30:38.668Z,11.90
2018-05-06T02:33:04.996Z,11.80
2018-05-06T02:35:31.279Z,11.70
2018-05-06T02:37:58.301Z,11.50
2018-05-06T02:40:25.018Z,11.40
2018-05-06T02:42:51.336Z,11.40
2018-05-06T02:45:17.615Z,11.30
2018-05-06T02:47:43.906Z,11.30
2018-05-06T02:50:10.234Z,11.30
2018-05-06T02:52:36.761Z,11.20
2018-05-06T02:55:03.182Z,11.10
2018-05-06T02:57:29.918Z,11.10
2018-05-06T02:59:56.226Z,11.10
2018-05-06T03:02:23.253Z,11.10
2018-05-06T03:04:53.056Z,11.00
2018-05-06T03:07:19.912Z,11.10
2018-05-06T03:09:46.167Z,11.10
2018-05-06T03:12:13.430Z,11.00
2018-05-06T03:14:39.689Z,11.00
2018-05-06T03:17:06.011Z,11.00
2018-05-06T03:19:32.314Z,11.00
2018-05-06T03:21:58.598Z,10.90
2018-05-06T03:24:25.628Z,11.00
2018-05-06T03:26:52.659Z,11.00
2018-05-06T03:29:18.929Z,11.00
2018-05-06T03:31:45.793Z,11.00
2018-05-06T03:34:12.102Z,11.00
2018-05-06T03:36:38.405Z,11.00
2018-05-06T03:39:04.714Z,10.90
2018-05-06T03:41:31.006Z,10.90
2018-05-06T03:43:57.538Z,10.90
2018-05-06T03:46:23.793Z,10.90
2018-05-06T03:48:50.318Z,10.90
2018-05-06T03:51:16.601Z,10.90
2018-05-06T03:53:42.886Z,10.90
2018-05-06T03:59:30.585Z,10.80
2018-05-06T04:05:05.531Z,11.00
2018-05-06T04:07:32.267Z,10.90
2018-05-06T04:09:58.551Z,10.90
2018-05-06T04:12:24.814Z,10.90
2018-05-06T04:14:51.111Z,10.90
2018-05-06T04:17:18.175Z,10.80
2018-05-06T04:19:44.454Z,10.80
2018-05-06T04:22:10.757Z,10.80
2018-05-06T04:24:37.102Z,10.80
2018-05-06T04:27:03.405Z,10.80
2018-05-06T04:29:29.690Z,10.80
2018-05-06T04:31:55.953Z,10.80
2018-05-06T04:34:22.271Z,10.80
2018-05-06T04:36:48.838Z,10.80
2018-05-06T04:39:15.134Z,10.80
2018-05-06T04:41:41.435Z,10.90
2018-05-06T04:44:07.812Z,10.90
2018-05-06T04:46:35.042Z,11.00
2018-05-06T04:49:01.318Z,11.00
2018-05-06T04:51:28.087Z,11.10
2018-05-06T04:53:54.379Z,11.20
2018-05-06T04:56:20.665Z,11.40
2018-05-06T04:58:47.172Z,11.50
2018-05-06T05:01:14.222Z,11.70
2018-05-06T05:03:40.854Z,11.70
2018-05-06T05:06:07.910Z,11.90
2018-05-06T05:08:34.278Z,11.80
2018-05-06T05:11:00.547Z,12.00
2018-05-06T05:13:27.278Z,12.10
2018-05-06T05:15:53.636Z,12.20
2018-05-06T05:18:20.973Z,12.30
2018-05-06T05:20:48.973Z,12.60
2018-05-06T05:23:16.080Z,12.60
2018-05-06T05:25:42.785Z,12.70
2018-05-06T05:28:10.817Z,12.70
2018-05-06T05:30:37.858Z,12.90
2018-05-06T05:33:05.218Z,12.90
2018-05-06T05:35:32.676Z,13.00
2018-05-06T05:37:58.966Z,13.10
2018-05-06T05:40:25.778Z,13.30
2018-05-06T05:42:53.009Z,13.40
2018-05-06T05:45:19.346Z,13.50
2018-05-06T05:47:46.914Z,13.60
2018-05-06T05:50:14.381Z,13.80
2018-05-06T05:52:40.723Z,13.90
2018-05-06T05:55:08.777Z,14.00
2018-05-06T05:57:36.243Z,14.10
2018-05-06T06:00:02.579Z,14.10
2018-05-06T06:02:28.881Z,14.20
2018-05-06T06:04:56.044Z,14.30
2018-05-06T06:07:23.174Z,14.40
2018-05-06T06:09:49.830Z,14.60
2018-05-06T06:12:17.426Z,14.70
2018-05-06T06:14:43.825Z,14.80
2018-05-06T06:17:10.873Z,14.80
2018-05-06T06:19:37.127Z,14.70
2018-05-06T06:22:03.892Z,14.80
2018-05-06T06:24:30.238Z,14.90
2018-05-06T06:26:56.505Z,15.00
2018-05-06T06:29:22.758Z,14.90
2018-05-06T06:31:49.054Z,15.10
2018-05-06T06:34:15.567Z,15.20
2018-05-06T06:36:41.850Z,15.10
2018-05-06T06:39:08.649Z,15.20
2018-05-06T06:41:34.885Z,15.30
2018-05-06T06:44:01.179Z,15.40
2018-05-06T06:46:27.427Z,15.50
2018-05-06T06:48:53.697Z,15.60
2018-05-06T06:51:20.998Z,15.70
2018-05-06T06:53:47.262Z,15.80
2018-05-06T06:56:13.674Z,15.90
2018-05-06T06:58:40.026Z,15.90
2018-05-06T07:01:06.294Z,16.00
2018-05-06T07:03:32.566Z,16.10
2018-05-06T07:05:59.620Z,16.30
2018-05-06T07:08:25.896Z,16.30
2018-05-06T07:10:52.138Z,16.30
2018-05-06T07:13:19.869Z,16.50
2018-05-06T07:15:46.145Z,16.50
2018-05-06T07:18:12.809Z,16.60
2018-05-06T07:20:39.046Z,16.70
2018-05-06T07:23:06.214Z,16.90
2018-05-06T07:25:32.506Z,17.10
2018-05-06T07:28:00.158Z,17.40
2018-05-06T07:30:26.597Z,17.40
2018-05-06T07:32:52.849Z,17.50
2018-05-06T07:35:19.845Z,17.70
2018-05-06T07:37:47.021Z,17.70
2018-05-06T07:40:13.277Z,17.80
2018-05-06T07:42:40.074Z,17.90
2018-05-06T07:45:06.348Z,18.00
2018-05-06T07:47:32.666Z,18.20
2018-05-06T07:49:58.946Z,18.20
2018-05-06T07:52:25.197Z,18.40
2018-05-06T07:54:51.645Z,18.50
2018-05-06T07:57:17.946Z,18.60
2018-05-06T07:59:44.318Z,18.80
2018-05-06T08:02:10.574Z,18.90
2018-05-06T08:04:36.847Z,18.80
2018-05-06T08:07:03.689Z,18.90
2018-05-06T08:09:30.510Z,18.90
2018-05-06T08:11:56.774Z,18.90
2018-05-06T08:14:23.078Z,19.10
2018-05-06T08:16:49.312Z,19.30
2018-05-06T08:19:15.574Z,19.40
2018-05-06T08:21:41.817Z,19.30
2018-05-06T08:24:08.322Z,19.50
2018-05-06T08:26:34.565Z,19.50
2018-05-06T08:29:01.437Z,19.80
2018-05-06T08:31:27.678Z,19.90
2018-05-06T08:33:54.273Z,20.00
2018-05-06T08:36:20.525Z,20.10
2018-05-06T08:38:46.796Z,20.20
2018-05-06T08:41:13.342Z,20.30
2018-05-06T08:43:39.657Z,20.30
2018-05-06T08:46:05.921Z,20.20
2018-05-06T08:48:32.165Z,20.20
2018-05-06T08:50:58.758Z,20.20
2018-05-06T08:53:25.046Z,20.20
2018-05-06T08:55:51.337Z,20.30
2018-05-06T08:58:18.318Z,20.60
2018-05-06T09:00:46.132Z,20.60
2018-05-06T09:03:12.865Z,20.70
2018-05-06T09:05:39.410Z,20.80
2018-05-06T09:08:05.631Z,20.90
2018-05-06T09:10:31.898Z,21.00
2018-05-06T09:12:58.979Z,21.30
2018-05-06T09:15:25.510Z,21.20
2018-05-06T09:17:51.750Z,21.40
2018-05-06T09:20:18.249Z,21.50
2018-05-06T09:22:45.357Z,21.40
2018-05-06T09:25:11.834Z,21.40
2018-05-06T09:27:39.495Z,21.40
2018-05-06T09:30:06.531Z,21.60
2018-05-06T09:32:34.248Z,21.60
2018-05-06T09:35:01.542Z,21.60
2018-05-06T09:37:27.777Z,21.60
2018-05-06T09:39:54.803Z,21.80
2018-05-06T09:42:21.069Z,21.70
2018-05-06T09:44:48.096Z,22.00
2018-05-06T09:47:14.367Z,22.00
2018-05-06T09:49:40.645Z,22.00
2018-05-06T09:52:07.129Z,22.00
2018-05-06T09:54:33.422Z,22.10
2018-05-06T09:57:00.066Z,22.10
2018-05-06T09:59:26.319Z,22.20
2018-05-06T10:01:53.083Z,22.40
2018-05-06T10:04:19.358Z,22.50
2018-05-06T10:06:45.882Z,22.50
2018-05-06T10:09:12.641Z,22.60
2018-05-06T10:11:39.409Z,22.60
2018-05-06T10:14:06.018Z,22.70
2018-05-06T10:16:32.304Z,22.80
2018-05-06T10:18:58.562Z,22.80
2018-05-06T10:21:25.442Z,23.00
2018-05-06T10:26:40.907Z,23.20
2018-05-06T10:29:07.150Z,23.20
2018-05-06T10:31:33.429Z,23.20
2018-05-06T10:34:00.026Z,23.30
2018-05-06T10:36:26.296Z,23.40
2018-05-06T10:38:52.534Z,23.50
2018-05-06T10:41:19.383Z,23.60
2018-05-06T10:43:45.748Z,23.70
2018-05-06T10:46:12.070Z,23.70
2018-05-06T10:48:38.336Z,23.90
2018-05-06T10:51:04.709Z,24.10
2018-05-06T10:53:31.662Z,24.10
2018-05-06T10:55:57.939Z,24.30
2018-05-06T10:58:24.210Z,24.30
2018-05-06T11:00:51.262Z,24.40
2018-05-06T11:03:17.499Z,24.40
2018-05-06T11:05:43.765Z,24.50
2018-05-06T11:08:11.206Z,24.60
2018-05-06T11:10:37.488Z,24.70
2018-05-06T11:13:03.777Z,24.70
2018-05-06T11:15:30.483Z,24.70
2018-05-06T11:17:57.099Z,24.70
2018-05-06T11:20:23.347Z,24.90
2018-05-06T11:22:49.623Z,25.00
2018-05-06T11:25:15.883Z,25.00
2018-05-06T11:27:42.154Z,25.10
2018-05-06T11:30:08.958Z,25.00
2018-05-06T11:32:35.247Z,25.10
2018-05-06T11:35:02.283Z,25.40
2018-05-06T11:37:30.152Z,25.60
2018-05-06T11:39:56.414Z,25.60
2018-05-06T11:42:22.974Z,25.80
2018-05-06T11:44:49.229Z,25.90
2018-05-06T11:47:16.262Z,26.10
2018-05-06T11:49:42.546Z,26.00
2018-05-06T11:52:09.551Z,26.20
2018-05-06T11:54:35.814Z,26.10
2018-05-06T11:57:02.307Z,26.40
2018-05-06T11:59:28.618Z,26.50
2018-05-06T12:01:55.029Z,26.60
2018-05-06T12:04:21.386Z,26.60
2018-05-06T12:06:47.817Z,26.60
2018-05-06T12:09:14.885Z,26.80
2018-05-06T12:11:41.154Z,26.90
2018-05-06T12:14:07.554Z,27.00
2018-05-06T12:16:34.221Z,27.00
2018-05-06T12:19:00.506Z,27.20
2018-05-06T12:21:27.499Z,27.50
2018-05-06T12:23:53.785Z,27.60
2018-05-06T12:26:20.614Z,27.60
2018-05-06T12:28:46.838Z,27.70
2018-05-06T12:31:13.773Z,27.70
2018-05-06T12:33:40.895Z,28.00
2018-05-06T12:36:09.716Z,27.90
2018-05-06T12:38:36.478Z,27.80
2018-05-06T12:41:03.458Z,27.80
2018-05-06T12:43:29.869Z,27.80
2018-05-06T12:45:56.902Z,28.30
2018-05-06T12:48:23.230Z,28.20
2018-05-06T12:50:49.873Z,28.40
2018-05-06T12:53:16.878Z,28.50
2018-05-06T12:55:43.250Z,28.50
2018-05-06T12:58:09.506Z,28.70
2018-05-06T13:00:36.555Z,28.90
2018-05-06T13:03:03.587Z,29.10
2018-05-06T13:05:30.591Z,29.10
2018-05-06T13:07:57.094Z,29.10
2018-05-06T13:10:23.341Z,29.30
2018-05-06T13:12:49.610Z,29.40
2018-05-06T13:15:15.850Z,29.60
2018-05-06T13:17:42.114Z,29.50
2018-05-06T13:20:23.210Z,29.80
2018-05-06T13:22:49.499Z,30.20
2018-05-06T13:25:15.755Z,30.50
2018-05-06T13:27:42.780Z,30.30
2018-05-06T13:30:09.018Z,30.40
2018-05-06T13:32:35.313Z,30.60
2018-05-06T13:35:01.586Z,31.00
2018-05-06T13:37:28.608Z,31.50
2018-05-06T13:39:55.206Z,31.50
2018-05-06T13:42:21.487Z,32.30
2018-05-06T13:44:47.842Z,33.10
2018-05-06T13:47:15.334Z,35.00
2018-05-06T13:49:41.613Z,34.90
2018-05-06T13:52:07.891Z,36.80
2018-05-06T13:54:34.169Z,37.90
2018-05-06T13:57:01.219Z,39.50
2018-05-06T13:59:27.481Z,39.40
2018-05-06T14:01:53.774Z,40.90
2018-05-06T14:04:20.248Z,41.20
2018-05-06T14:06:47.736Z,41.60
2018-05-06T14:09:14.278Z,41.60
2018-05-06T14:11:40.514Z,42.60
2018-05-06T14:14:07.133Z,43.10
2018-05-06T14:16:33.390Z,42.10
2018-05-06T14:18:59.664Z,42.00
2018-05-06T14:21:26.206Z,42.50
2018-05-06T14:23:52.461Z,43.30
2018-05-06T14:26:20.178Z,42.80
2018-05-06T14:28:47.044Z,42.80
2018-05-06T14:31:13.289Z,43.30
2018-05-06T14:33:42.729Z,42.60
2018-05-06T14:36:09.395Z,43.00
2018-05-06T14:38:35.649Z,42.60
2018-05-06T14:41:02.166Z,41.80
2018-05-06T14:43:28.718Z,41.10
2018-05-06T14:45:55.737Z,40.50
2018-05-06T14:48:22.012Z,40.50
2018-05-06T14:50:48.998Z,40.80
2018-05-06T14:53:15.226Z,40.80
2018-05-06T14:55:41.722Z,42.20
2018-05-06T14:58:07.982Z,42.40
2018-05-06T15:00:34.253Z,44.40
2018-05-06T15:03:00.531Z,44.30
2018-05-06T15:05:27.778Z,42.30
2018-05-06T15:07:54.061Z,42.20
2018-05-06T15:10:20.443Z,41.80
2018-05-06T15:12:46.615Z,41.20
2018-05-06T15:15:12.891Z,41.60
2018-05-06T15:17:39.326Z,42.20
2018-05-06T15:20:05.606Z,42.70
2018-05-06T15:22:31.863Z,43.00
2018-05-06T15:24:58.155Z,42.90
2018-05-06T15:27:24.668Z,42.30
2018-05-06T15:29:50.982Z,42.20
2018-05-06T15:32:17.502Z,42.90
2018-05-06T15:34:43.799Z,42.70
2018-05-06T15:37:10.064Z,42.40
2018-05-06T15:39:36.325Z,42.10
2018-05-06T15:42:02.594Z,43.00
2018-05-06T15:44:29.123Z,43.00
2018-05-06T15:46:55.401Z,41.60
2018-05-06T15:49:21.779Z,42.10
2018-05-06T15:51:48.115Z,43.60
2018-05-06T15:54:16.055Z,43.10
2018-05-06T15:56:42.351Z,43.10
2018-05-06T15:59:08.709Z,42.20
2018-05-06T16:01:34.946Z,42.90
2018-05-06T16:04:11.332Z,43.30
2018-05-06T16:06:37.886Z,43.20
2018-05-06T16:09:04.921Z,42.40
2018-05-06T16:11:32.171Z,42.00
2018-05-06T16:13:58.430Z,41.90
2018-05-06T16:16:24.786Z,41.70
2018-05-06T16:18:51.742Z,42.20
2018-05-06T16:21:18.317Z,43.20
2018-05-06T16:23:44.595Z,42.90
2018-05-06T16:26:11.451Z,43.40
2018-05-06T16:28:37.727Z,41.30
2018-05-06T16:31:04.880Z,41.00
2018-05-06T16:33:31.622Z,41.30
2018-05-06T16:35:58.232Z,40.80
2018-05-06T16:38:24.529Z,40.50
2018-05-06T16:40:50.806Z,41.40
2018-05-06T16:43:17.038Z,40.50
2018-05-06T16:45:43.452Z,40.60
2018-05-06T16:48:09.714Z,40.60
2018-05-06T16:50:35.978Z,41.10
2018-05-06T16:53:02.970Z,40.20
2018-05-06T16:55:29.268Z,40.10
2018-05-06T16:57:55.929Z,39.60
2018-05-06T17:00:22.308Z,39.30
2018-05-06T17:02:48.795Z,38.40
2018-05-06T17:05:15.067Z,39.20
2018-05-06T17:07:41.334Z,38.80
2018-05-06T17:10:07.655Z,38.30
2018-05-06T17:12:34.896Z,37.40
2018-05-06T17:15:01.142Z,37.40
2018-05-06T17:17:28.350Z,36.20
2018-05-06T17:19:54.621Z,36.10
2018-05-06T17:22:20.883Z,35.10
2018-05-06T17:24:47.330Z,33.70
2018-05-06T17:27:13.722Z,32.30
2018-05-06T17:29:39.964Z,31.20
2018-05-06T17:32:06.292Z,30.30
2018-05-06T17:34:32.570Z,29.60
2018-05-06T17:36:59.371Z,29.20
2018-05-06T17:39:25.629Z,28.90
2018-05-06T17:41:51.959Z,28.60
2018-05-06T17:44:18.222Z,28.20
2018-05-06T17:46:44.499Z,27.90
2018-05-06T17:49:11.271Z,27.70
2018-05-06T17:51:37.558Z,27.70
2018-05-06T17:54:03.819Z,27.40
2018-05-06T17:56:30.114Z,27.80
2018-05-06T17:58:57.187Z,28.50
2018-05-06T18:01:38.529Z,28.50
2018-05-06T18:04:04.783Z,28.70
2018-05-06T18:06:31.062Z,28.20
2018-05-06T18:08:57.594Z,27.70
2018-05-06T18:11:23.913Z,27.10
2018-05-06T18:13:50.552Z,26.60
2018-05-06T18:16:17.659Z,25.80
2018-05-06T18:18:43.932Z,25.70
2018-05-06T18:21:10.943Z,25.30
2018-05-06T18:23:37.186Z,25.20
2018-05-06T18:26:04.220Z,25.00
2018-05-06T18:28:30.535Z,25.00
2018-05-06T18:30:56.765Z,24.80
2018-05-06T18:33:23.022Z,24.60
2018-05-06T18:35:49.502Z,24.40
2018-05-06T18:38:15.725Z,24.30
2018-05-06T18:40:42.709Z,24.00
2018-05-06T18:43:09.229Z,24.00
2018-05-06T18:45:35.505Z,23.90
2018-05-06T18:48:01.765Z,23.80
2018-05-06T18:50:28.749Z,23.60
2018-05-06T18:52:55.010Z,23.60
2018-05-06T18:55:21.355Z,23.50
2018-05-06T18:57:47.834Z,23.50
2018-05-06T19:00:14.348Z,23.20
2018-05-06T19:02:41.415Z,23.00
2018-05-06T19:05:08.362Z,22.90
2018-05-06T19:07:34.610Z,22.90
2018-05-06T19:10:00.858Z,22.80
2018-05-06T19:12:27.153Z,22.70
2018-05-06T19:14:53.393Z,22.60
2018-05-06T19:17:19.666Z,22.50
2018-05-06T19:19:46.129Z,22.40
2018-05-06T19:22:12.382Z,22.40
2018-05-06T19:24:38.625Z,22.20
2018-05-06T19:27:05.276Z,22.10
2018-05-06T19:29:31.574Z,22.10
2018-05-06T19:31:58.803Z,22.00
2018-05-06T19:34:25.242Z,21.90
2018-05-06T19:36:51.505Z,21.70
2018-05-06T19:39:17.750Z,21.70
2018-05-06T19:41:44.190Z,21.60
2018-05-06T19:44:10.467Z,21.60
2018-05-06T19:46:36.738Z,21.50
2018-05-06T19:49:03.079Z,21.50
2018-05-06T19:51:29.722Z,21.40
2018-05-06T19:53:56.263Z,21.30
2018-05-06T19:56:22.510Z,21.30
2018-05-06T19:58:48.776Z,21.20
2018-05-06T20:01:15.022Z,21.30
2018-05-06T20:03:41.282Z,21.20
2018-05-06T20:06:07.534Z,21.10
2018-05-06T20:08:33.788Z,20.90
2018-05-06T20:11:00.031Z,20.80
2018-05-06T20:13:26.306Z,20.80
2018-05-06T20:15:52.542Z,20.70
2018-05-06T20:18:19.012Z,20.70
2018-05-06T20:20:45.337Z,20.60
2018-05-06T20:23:11.646Z,20.60
2018-05-06T20:25:37.894Z,20.50
2018-05-06T20:28:04.214Z,20.40
2018-05-06T20:30:30.885Z,20.40
2018-05-06T20:32:57.150Z,20.40
2018-05-06T20:35:24.741Z,20.10
2018-05-06T20:37:52.567Z,20.10
2018-05-06T20:40:19.562Z,20.10
2018-05-06T20:42:45.850Z,20.10
2018-05-06T20:45:13.046Z,20.00
2018-05-06T20:47:39.314Z,20.00
2018-05-06T20:50:05.555Z,20.00
2018-05-06T20:52:32.055Z,20.00
2018-05-06T20:54:58.330Z,19.90
2018-05-06T20:57:25.046Z,19.90
2018-05-06T20:59:52.226Z,19.80
2018-05-06T21:02:18.546Z,19.80
2018-05-06T21:07:37.397Z,19.80
2018-05-06T21:10:03.720Z,19.80
2018-05-06T21:12:30.347Z,19.70
2018-05-06T21:14:56.699Z,19.70
2018-05-06T21:17:23.013Z,19.60
2018-05-06T21:19:55.079Z,19.60
2018-05-06T21:22:22.385Z,19.60
2018-05-06T21:24:48.780Z,19.50
2018-05-06T21:27:15.282Z,19.50
2018-05-06T21:29:42.654Z,19.30
2018-05-06T21:32:08.974Z,19.30
2018-05-06T21:34:36.089Z,19.20
2018-05-06T21:37:03.512Z,19.20
2018-05-06T21:39:29.870Z,19.20
2018-05-06T21:41:56.175Z,19.20
2018-05-06T21:44:22.615Z,19.10
2018-05-06T21:46:48.955Z,19.10
2018-05-06T21:49:15.431Z,19.00
2018-05-06T21:51:41.739Z,18.90
2018-05-06T21:54:08.424Z,18.90
2018-05-06T21:56:35.499Z,18.70
2018-05-06T21:59:01.975Z,18.70
2018-05-06T22:01:28.348Z,18.70
2018-05-06T22:03:55.102Z,18.60
2018-05-06T22:06:21.762Z,18.50
2018-05-06T22:08:48.077Z,18.50
2018-05-06T22:11:14.579Z,18.40
2018-05-06T22:13:40.884Z,18.40
2018-05-06T22:16:07.213Z,18.30
2018-05-06T22:18:33.511Z,18.20
2018-05-06T22:20:59.859Z,18.10
2018-05-06T22:23:26.190Z,18.00
2018-05-06T22:25:52.525Z,17.90
2018-05-06T22:28:18.986Z,17.70
2018-05-06T22:30:45.314Z,17.70
2018-05-06T22:33:11.858Z,17.60
2018-05-06T22:35:38.205Z,17.50
2018-05-06T22:38:04.710Z,17.50
2018-05-06T22:40:31.058Z,17.40
2018-05-06T22:42:57.707Z,17.30
2018-05-06T22:45:24.007Z,17.20
2018-05-06T22:47:50.607Z,17.10
2018-05-06T22:50:16.910Z,17.10
2018-05-06T22:52:43.269Z,17.20
2018-05-06T22:55:09.860Z,17.20
2018-05-06T22:57:36.226Z,17.10
2018-05-06T23:00:02.581Z,17.10
2018-05-06T23:02:29.913Z,17.10
2018-05-06T23:04:56.230Z,17.10
2018-05-06T23:07:22.554Z,17.10
2018-05-06T23:09:48.854Z,17.00
2018-05-06T23:12:16.218Z,17.00
2018-05-06T23:14:42.529Z,17.00
2018-05-06T23:17:09.591Z,17.00
2018-05-06T23:19:36.644Z,16.90
2018-05-06T23:22:03.015Z,16.90
2018-05-06T23:24:29.529Z,16.90
2018-05-06T23:26:56.074Z,16.90
2018-05-06T23:29:22.732Z,16.80
2018-05-06T23:31:48.989Z,16.80
2018-05-06T23:34:16.079Z,16.80
2018-05-06T23:36:42.383Z,16.80
2018-05-06T23:39:09.070Z,16.70
2018-05-06T23:41:35.379Z,16.70
2018-05-06T23:44:02.695Z,16.60
2018-05-06T23:46:31.029Z,16.60
2018-05-06T23:48:57.351Z,16.60
2018-05-06T23:51:24.022Z,16.50
2018-05-06T23:53:50.355Z,16.50
2018-05-06T23:56:16.922Z,16.30
2018-05-06T23:58:43.275Z,16.40
